Time;durP1;ratioP1;P1;durP2;ratioP2;P2;SDS_P1;SDS_P2;PMS_P1;PMS_P2;Temp;Humidity;BMP_temperature;BMP_pressure;BME280_temperature;BME280_humidity;BME280_pressure;Samples;Min_cycle;Max_cycle;Signal;HPM_P1;HPM_P2
2024/01/02 00:01:54;;;;;;;0.93;0.20;;;7.40;99.90;;;;;;5100099;28;20564;-75
2024/01/02 00:04:21;;;;;;;0.50;0.10;;;7.50;99.90;;;;;;5091579;28;20449;-75
2024/01/02 00:06:48;;;;;;;0.40;0.20;;;7.50;99.90;;;;;;5111547;28;20420;-75
2024/01/02 00:09:16;;;;;;;0.60;0.20;;;7.60;99.90;;;;;;5113127;28;20713;-76
2024/01/02 00:11:43;;;;;;;0.80;0.20;;;7.60;99.90;;;;;;5111153;28;20887;-75
2024/01/02 00:14:10;;;;;;;0.50;0.20;;;7.50;99.90;;;;;;5108192;28;20465;-75
2024/01/02 00:16:39;;;;;;;0.60;0.20;;;7.60;99.90;;;;;;5113072;28;20428;-75
2024/01/02 00:19:08;;;;;;;0.90;0.10;;;7.60;99.90;;;;;;5097779;28;20406;-75
2024/01/02 00:21:35;;;;;;;0.43;0.20;;;7.60;99.90;;;;;;5104587;28;20507;-75
2024/01/02 00:24:03;;;;;;;1.90;0.20;;;7.50;99.90;;;;;;5103539;28;20422;-75
2024/01/02 00:26:31;;;;;;;0.60;0.20;;;7.60;1.00;;;;;;5112604;28;20470;-75
2024/01/02 00:28:59;;;;;;;1.85;0.20;;;7.60;99.90;;;;;;5108742;28;20623;-76
2024/01/02 00:31:26;;;;;;;1.20;0.20;;;7.70;99.90;;;;;;5103823;28;20472;-76
2024/01/02 00:33:54;;;;;;;0.40;0.20;;;7.70;99.90;;;;;;5103545;28;20426;-76
2024/01/02 00:36:21;;;;;;;0.70;0.20;;;7.80;99.90;;;;;;5101954;28;20455;-76
2024/01/02 00:38:48;;;;;;;0.50;0.20;;;7.80;99.90;;;;;;5110611;28;20424;-75
2024/01/02 00:41:15;;;;;;;1.20;0.20;;;7.70;99.90;;;;;;5108596;28;20414;-75
2024/01/02 00:43:50;;;;;;;0.60;0.20;;;7.60;1.00;;;;;;5092418;28;20405;-75
2024/01/02 00:46:17;;;;;;;0.50;0.20;;;7.60;1.00;;;;;;5093151;28;20426;-75
2024/01/02 00:48:46;;;;;;;1.00;0.20;;;7.70;1.00;;;;;;5098351;28;20846;-75
2024/01/02 00:51:14;;;;;;;1.15;0.20;;;7.80;1.00;;;;;;5093871;28;20711;-75
2024/01/02 00:53:42;;;;;;;0.40;0.10;;;7.80;1.00;;;;;;5099419;28;20452;-75
2024/01/02 00:56:09;;;;;;;0.40;0.10;;;7.80;1.00;;;;;;5110401;28;20436;-75
2024/01/02 00:58:36;;;;;;;0.57;0.20;;;7.90;1.00;;;;;;5096682;28;20418;-75
2024/01/02 01:01:04;;;;;;;0.70;0.10;;;7.80;99.90;;;;;;5114123;28;20427;-75
2024/01/02 01:03:31;;;;;;;0.40;0.13;;;7.90;99.90;;;;;;5110242;28;20491;-75
2024/01/02 01:05:59;;;;;;;0.30;0.10;;;7.80;1.00;;;;;;5094645;28;20678;-75
2024/01/02 01:08:27;;;;;;;0.80;0.10;;;7.60;1.00;;;;;;5112705;28;20439;-75
2024/01/02 01:10:55;;;;;;;0.40;0.17;;;7.60;1.00;;;;;;5113478;28;20498;-75
2024/01/02 01:13:22;;;;;;;0.60;0.10;;;7.60;1.00;;;;;;5113846;28;20482;-76
2024/01/02 01:15:49;;;;;;;0.40;0.10;;;7.60;1.00;;;;;;5101985;28;20933;-75
2024/01/02 01:18:16;;;;;;;0.50;0.10;;;7.70;1.00;;;;;;5095402;28;20769;-75
2024/01/02 01:20:44;;;;;;;0.30;0.10;;;7.70;1.00;;;;;;5115291;28;20489;-76
2024/01/02 01:23:12;;;;;;;0.30;0.10;;;7.70;1.00;;;;;;5112655;28;20435;-75
2024/01/02 01:25:41;;;;;;;0.50;0.20;;;7.60;1.00;;;;;;5107627;28;20862;-75
2024/01/02 01:28:09;;;;;;;0.30;0.10;;;7.60;1.00;;;;;;5112245;28;20440;-74
2024/01/02 01:30:36;;;;;;;0.52;0.10;;;7.70;1.00;;;;;;5113733;28;20485;-74
2024/01/02 01:33:03;;;;;;;0.50;0.17;;;7.60;1.00;;;;;;5097779;28;20897;-75
2024/01/02 01:35:31;;;;;;;0.50;0.20;;;7.50;1.00;;;;;;5111107;28;20848;-75
2024/01/02 01:37:58;;;;;;;1.00;0.10;;;7.50;71.60;;;;;;5112653;28;20460;-75
2024/01/02 01:40:28;;;;;;;0.40;0.10;;;7.60;99.90;;;;;;5114388;28;20459;-75
2024/01/02 01:42:56;;;;;;;0.40;0.10;;;7.50;16.50;;;;;;5113077;28;20825;-75
2024/01/02 01:45:23;;;;;;;0.30;0.10;;;7.50;1.00;;;;;;5102418;28;20431;-75
2024/01/02 01:47:51;;;;;;;0.50;0.20;;;7.50;25.30;;;;;;5111948;28;20531;-75
2024/01/02 01:50:19;;;;;;;0.50;0.15;;;7.50;99.90;;;;;;5113025;28;20792;-75
2024/01/02 01:52:47;;;;;;;1.40;0.20;;;7.50;99.90;;;;;;5113948;28;20863;-76
2024/01/02 01:55:15;;;;;;;0.50;0.20;;;7.60;99.90;;;;;;5112529;28;20436;-75
2024/01/02 01:57:43;;;;;;;0.40;0.20;;;7.50;99.90;;;;;;5114158;28;20440;-75
2024/01/02 02:00:12;;;;;;;0.80;0.20;;;7.50;99.90;;;;;;5112253;28;20810;-75
2024/01/02 02:02:45;;;;;;;0.50;0.10;;;7.50;99.90;;;;;;5112068;28;20823;-75
2024/01/02 02:05:12;;;;;;;0.40;0.10;;;7.60;1.00;;;;;;5110339;28;20467;-75
2024/01/02 02:07:40;;;;;;;0.40;0.10;;;7.60;65.00;;;;;;5108077;28;20911;-75
2024/01/02 02:10:08;;;;;;;0.98;0.20;;;7.70;62.10;;;;;;5091317;28;20432;-75
2024/01/02 02:12:36;;;;;;;0.40;0.10;;;7.60;99.90;;;;;;5107490;28;20439;-75
2024/01/02 02:15:06;;;;;;;0.30;0.10;;;7.60;99.90;;;;;;5110646;28;20831;-75
2024/01/02 02:17:35;;;;;;;0.60;0.10;;;7.60;99.90;;;;;;5093306;28;20500;-76
2024/01/02 02:20:02;;;;;;;1.70;0.17;;;7.60;99.90;;;;;;5092508;28;20402;-75
2024/01/02 02:22:35;;;;;;;0.40;0.10;;;7.60;99.90;;;;;;5104971;28;20436;-75
2024/01/02 02:25:04;;;;;;;0.60;0.20;;;7.60;99.90;;;;;;5113475;28;20432;-75
2024/01/02 02:27:31;;;;;;;0.60;0.10;;;7.60;99.90;;;;;;5113745;28;20416;-75
2024/01/02 02:29:59;;;;;;;0.40;0.10;;;7.70;99.90;;;;;;5113328;28;20419;-75
2024/01/02 02:32:26;;;;;;;0.80;0.13;;;7.70;99.90;;;;;;5112761;28;20459;-75
2024/01/02 02:34:53;;;;;;;0.70;0.10;;;7.70;99.90;;;;;;5114186;28;20427;-75
2024/01/02 02:37:20;;;;;;;1.70;0.20;;;7.70;99.90;;;;;;5102200;28;20436;-76
2024/01/02 02:39:47;;;;;;;0.30;0.10;;;7.70;1.00;;;;;;5094106;28;20732;-75
2024/01/02 02:42:16;;;;;;;0.50;0.20;;;7.60;17.10;;;;;;5094453;28;20428;-75
2024/01/02 02:44:43;;;;;;;0.30;0.10;;;7.70;1.00;;;;;;5093848;28;20806;-75
2024/01/02 02:47:10;;;;;;;0.80;0.20;;;7.80;99.90;;;;;;5100768;28;20435;-75
2024/01/02 02:49:37;;;;;;;0.60;0.10;;;7.80;99.90;;;;;;5119313;28;20412;-76
2024/01/02 02:52:05;;;;;;;0.68;0.10;;;7.70;29.30;;;;;;5119164;28;20432;-76
2024/01/02 02:54:32;;;;;;;0.40;0.10;;;7.60;1.00;;;;;;5119951;28;20447;-76
2024/01/02 02:56:59;;;;;;;0.43;0.20;;;7.60;99.90;;;;;;5119725;28;20432;-76
2024/01/02 02:59:28;;;;;;;0.90;0.10;;;7.60;1.00;;;;;;5118397;28;20413;-75
2024/01/02 03:01:55;;;;;;;0.40;0.10;;;7.50;1.00;;;;;;5116786;28;20728;-76
2024/01/02 03:04:22;;;;;;;0.30;0.10;;;7.40;99.90;;;;;;5118132;28;20430;-75
2024/01/02 03:06:49;;;;;;;0.40;0.10;;;7.40;99.90;;;;;;5117528;28;20420;-75
2024/01/02 03:09:16;;;;;;;0.50;0.10;;;7.30;99.90;;;;;;5117530;28;20777;-76
2024/01/02 03:11:48;;;;;;;0.40;0.13;;;7.30;99.90;;;;;;5117282;28;20456;-76
2024/01/02 03:14:15;;;;;;;0.40;0.10;;;7.40;99.90;;;;;;5116965;28;20416;-75
2024/01/02 03:16:47;;;;;;;0.40;0.10;;;7.30;1.00;;;;;;5096201;28;20430;-76
2024/01/02 03:19:14;;;;;;;0.40;0.10;;;7.30;1.00;;;;;;5096431;28;20822;-76
2024/01/02 03:21:41;;;;;;;0.80;0.10;;;7.30;1.00;;;;;;5096980;28;20704;-76
2024/01/02 03:24:08;;;;;;;0.60;0.10;;;7.30;1.00;;;;;;5096491;28;20505;-76
2024/01/02 03:26:35;;;;;;;0.50;0.10;;;7.30;1.00;;;;;;5096599;28;20422;-76
2024/01/02 03:29:03;;;;;;;0.40;0.20;;;7.20;1.00;;;;;;5094194;28;20410;-75
2024/01/02 03:31:30;;;;;;;0.50;0.20;;;7.20;1.00;;;;;;5102352;28;20519;-76
2024/01/02 03:33:58;;;;;;;0.50;0.10;;;7.20;1.00;;;;;;5116289;28;20424;-76
2024/01/02 03:36:26;;;;;;;0.40;0.10;;;7.20;1.00;;;;;;5116677;28;20428;-76
2024/01/02 03:38:54;;;;;;;0.43;0.20;;;7.30;1.00;;;;;;5115980;28;20424;-76
2024/01/02 03:41:21;;;;;;;0.40;0.10;;;7.20;1.00;;;;;;5116111;28;20884;-76
2024/01/02 03:43:49;;;;;;;0.30;0.10;;;7.20;1.00;;;;;;5115928;28;20470;-76
2024/01/02 03:46:16;;;;;;;0.30;0.10;;;7.20;1.00;;;;;;5116179;28;20428;-76
2024/01/02 03:48:45;;;;;;;0.60;0.10;;;7.10;1.00;;;;;;5115730;28;20572;-76
2024/01/02 03:51:14;;;;;;;0.40;0.10;;;7.10;1.00;;;;;;5116320;28;20416;-74
2024/01/02 03:53:41;;;;;;;0.40;0.10;;;7.10;1.00;;;;;;5116044;28;20519;-74
2024/01/02 03:56:08;;;;;;;0.30;0.10;;;7.10;1.00;;;;;;5115591;28;20435;-75
2024/01/02 03:58:36;;;;;;;0.30;0.10;;;7.20;1.00;;;;;;5114441;28;20448;-75
2024/01/02 04:01:03;;;;;;;0.30;0.10;;;7.20;1.00;;;;;;5114302;28;20489;-75
2024/01/02 04:03:30;;;;;;;0.30;0.10;;;7.20;1.00;;;;;;5114965;28;20731;-74
2024/01/02 04:05:58;;;;;;;0.30;0.10;;;7.20;1.00;;;;;;5114824;28;20867;-75
2024/01/02 04:08:26;;;;;;;0.43;0.10;;;7.20;1.00;;;;;;5112327;28;20436;-74
2024/01/02 04:10:53;;;;;;;0.30;0.10;;;7.30;1.00;;;;;;5114255;28;20443;-75
2024/01/02 04:13:20;;;;;;;0.30;0.10;;;7.20;1.00;;;;;;5114337;28;20435;-75
2024/01/02 04:15:50;;;;;;;1.40;0.10;;;7.20;1.00;;;;;;5114624;28;20416;-74
2024/01/02 04:18:17;;;;;;;0.30;0.10;;;7.40;1.00;;;;;;5112953;28;20443;-75
2024/01/02 04:20:45;;;;;;;0.30;0.10;;;7.30;1.00;;;;;;5114099;28;20420;-75
2024/01/02 04:23:12;;;;;;;0.40;0.10;;;7.30;1.00;;;;;;5113720;28;20517;-75
2024/01/02 04:25:40;;;;;;;0.30;0.10;;;7.30;1.00;;;;;;5113884;28;20763;-75
2024/01/02 04:28:09;;;;;;;1.30;0.10;;;7.30;9.20;;;;;;5112941;28;20473;-76
2024/01/02 04:30:36;;;;;;;0.30;0.10;;;7.30;1.70;;;;;;5114257;28;20676;-76
2024/01/02 04:33:03;;;;;;;0.30;0.10;;;7.20;15.90;;;;;;5112830;28;20420;-76
2024/01/02 04:35:30;;;;;;;0.30;0.10;;;7.30;28.30;;;;;;5111846;28;20420;-76
2024/01/02 04:37:58;;;;;;;1.00;0.10;;;7.30;26.40;;;;;;5110662;28;20428;-77
2024/01/02 04:40:25;;;;;;;0.70;0.10;;;7.30;19.60;;;;;;5113556;28;20428;-76
2024/01/02 04:42:53;;;;;;;0.30;0.10;;;7.30;23.00;;;;;;5112967;28;20419;-76
2024/01/02 04:45:20;;;;;;;0.67;0.10;;;7.30;29.40;;;;;;5112664;28;20428;-76
2024/01/02 04:47:48;;;;;;;0.30;0.10;;;7.40;22.80;;;;;;5112431;28;20420;-75
2024/01/02 04:50:14;;;;;;;0.32;0.10;;;7.30;12.80;;;;;;5113323;28;20417;-75
2024/01/02 04:52:41;;;;;;;1.80;0.10;;;7.30;23.20;;;;;;5114080;28;20415;-76
2024/01/02 04:55:08;;;;;;;0.30;0.10;;;7.30;21.90;;;;;;5108949;28;20491;-75
2024/01/02 04:57:35;;;;;;;0.30;0.10;;;7.10;29.60;;;;;;5094098;28;21123;-75
2024/01/02 05:00:05;;;;;;;0.30;0.10;;;7.00;38.50;;;;;;5093946;28;20449;-75
2024/01/02 05:02:32;;;;;;;0.30;0.10;;;7.00;45.50;;;;;;5093742;28;20436;-75
2024/01/02 05:05:00;;;;;;;0.30;0.10;;;6.90;53.60;;;;;;5093042;28;20410;-75
2024/01/02 05:07:27;;;;;;;0.30;0.10;;;6.90;69.30;;;;;;5092479;28;20440;-75
2024/01/02 05:09:54;;;;;;;0.30;0.10;;;7.00;79.20;;;;;;5097329;28;20443;-76
2024/01/02 05:12:22;;;;;;;0.30;0.10;;;6.90;72.40;;;;;;5112806;28;20762;-75
2024/01/02 05:14:50;;;;;;;0.50;0.10;;;6.90;80.80;;;;;;5112128;28;20762;-75
2024/01/02 05:17:18;;;;;;;0.30;0.10;;;6.90;88.60;;;;;;5112274;28;20883;-75
2024/01/02 05:19:46;;;;;;;0.60;0.10;;;6.90;96.90;;;;;;5112344;28;20427;-75
2024/01/02 05:22:13;;;;;;;0.30;0.10;;;6.90;90.30;;;;;;5113250;28;20420;-76
2024/01/02 05:24:39;;;;;;;0.30;0.10;;;6.80;98.20;;;;;;5113725;28;20411;-76
2024/01/02 05:27:06;;;;;;;1.20;0.10;;;6.90;99.90;;;;;;5113391;28;20515;-75
2024/01/02 05:29:35;;;;;;;0.40;0.10;;;6.90;95.60;;;;;;5112221;28;20424;-75
2024/01/02 05:32:03;;;;;;;0.30;0.10;;;6.80;99.90;;;;;;5111153;28;20427;-75
2024/01/02 05:34:31;;;;;;;0.40;0.10;;;6.80;99.90;;;;;;5090073;28;20704;-75
2024/01/02 05:36:58;;;;;;;0.70;0.10;;;6.80;99.90;;;;;;5089580;28;20649;-74
2024/01/02 05:39:25;;;;;;;0.30;0.10;;;6.90;99.90;;;;;;5090336;28;20532;-75
2024/01/02 05:41:53;;;;;;;0.40;0.10;;;6.90;99.90;;;;;;5090377;28;20733;-75
2024/01/02 05:44:20;;;;;;;0.60;0.17;;;6.80;99.90;;;;;;5091794;28;20690;-75
2024/01/02 05:46:47;;;;;;;0.30;0.10;;;6.90;99.90;;;;;;5091739;28;20817;-75
2024/01/02 05:49:14;;;;;;;0.30;0.10;;;6.90;99.90;;;;;;5091486;28;20456;-75
2024/01/02 05:51:42;;;;;;;0.40;0.10;;;6.90;99.90;;;;;;5091967;28;20421;-74
2024/01/02 05:54:09;;;;;;;0.30;0.10;;;7.00;99.90;;;;;;5096462;28;20801;-75
2024/01/02 05:56:37;;;;;;;0.40;0.10;;;7.10;99.90;;;;;;5112914;28;20431;-74
2024/01/02 05:59:04;;;;;;;0.30;0.10;;;7.10;99.90;;;;;;5113368;28;20412;-74
2024/01/02 06:01:32;;;;;;;0.40;0.10;;;7.00;99.90;;;;;;5112267;28;20720;-75
2024/01/02 06:03:59;;;;;;;0.30;0.10;;;7.10;99.90;;;;;;5092146;28;20429;-74
2024/01/02 06:06:26;;;;;;;1.07;0.10;;;7.20;99.90;;;;;;5102068;28;20428;-74
2024/01/02 06:08:54;;;;;;;0.80;0.10;;;7.10;99.90;;;;;;5112340;28;20424;-74
2024/01/02 06:11:21;;;;;;;0.30;0.10;;;7.10;99.90;;;;;;5113031;28;20400;-74
2024/01/02 06:13:49;;;;;;;0.30;0.10;;;7.10;99.90;;;;;;5112863;28;20423;-74
2024/01/02 06:16:16;;;;;;;0.30;0.10;;;7.00;99.90;;;;;;5096454;28;20414;-74
2024/01/02 06:18:43;;;;;;;0.60;0.10;;;7.00;99.90;;;;;;5091224;28;20796;-74
2024/01/02 06:21:10;;;;;;;0.30;0.10;;;7.00;99.90;;;;;;5105680;28;20436;-74
2024/01/02 06:23:37;;;;;;;0.30;0.10;;;7.10;99.90;;;;;;5115792;28;20427;-74
2024/01/02 06:26:07;;;;;;;0.60;0.10;;;7.20;99.90;;;;;;5116807;28;20412;-74
2024/01/02 06:28:34;;;;;;;0.30;0.10;;;7.20;99.90;;;;;;5115645;28;20708;-74
2024/01/02 06:31:05;;;;;;;0.30;0.10;;;7.10;99.90;;;;;;5112950;28;20722;-74
2024/01/02 06:33:33;;;;;;;0.40;0.20;;;7.10;99.90;;;;;;5094851;28;20865;-74
2024/01/02 06:36:01;;;;;;;0.40;0.20;;;7.10;99.90;;;;;;5095509;28;20808;-74
2024/01/02 06:38:28;;;;;;;0.40;0.10;;;7.10;99.90;;;;;;5094964;28;20438;-74
2024/01/02 06:40:55;;;;;;;0.30;0.10;;;7.20;99.90;;;;;;5099825;28;20786;-74
2024/01/02 06:43:24;;;;;;;0.30;0.10;;;7.20;99.90;;;;;;5115748;28;20439;-74
2024/01/02 06:45:51;;;;;;;0.30;0.10;;;7.20;99.90;;;;;;5116032;28;20728;-75
2024/01/02 06:48:21;;;;;;;0.30;0.10;;;7.40;99.90;;;;;;5116925;28;20459;-75
2024/01/02 06:50:49;;;;;;;0.30;0.10;;;7.40;99.90;;;;;;5101485;28;20426;-75
2024/01/02 06:53:16;;;;;;;0.50;0.10;;;7.50;99.90;;;;;;5094951;28;20426;-75
2024/01/02 06:55:43;;;;;;;0.40;0.10;;;7.40;99.90;;;;;;5107300;28;20438;-75
2024/01/02 06:58:11;;;;;;;0.30;0.10;;;7.40;99.90;;;;;;5112558;28;20454;-74
2024/01/02 07:00:39;;;;;;;0.40;0.10;;;7.30;99.90;;;;;;5105454;28;20465;-74
2024/01/02 07:03:06;;;;;;;0.30;0.10;;;7.30;99.90;;;;;;5102152;28;20748;-74
2024/01/02 07:05:33;;;;;;;0.40;0.10;;;7.40;99.90;;;;;;5116719;28;20696;-74
2024/01/02 07:08:00;;;;;;;0.40;0.10;;;7.40;99.90;;;;;;5116312;28;20816;-74
2024/01/02 07:10:28;;;;;;;0.35;0.10;;;7.50;99.90;;;;;;5113474;28;20436;-74
2024/01/02 07:12:55;;;;;;;0.40;0.10;;;7.40;99.90;;;;;;5113237;28;20623;-74
2024/01/02 07:15:22;;;;;;;0.50;0.10;;;7.50;99.90;;;;;;5112964;28;20470;-74
2024/01/02 07:17:54;;;;;;;0.30;0.10;;;7.50;99.90;;;;;;5113758;28;20428;-74
2024/01/02 07:20:23;;;;;;;0.30;0.10;;;7.60;99.90;;;;;;5113159;28;20573;-74
2024/01/02 07:22:50;;;;;;;0.70;0.10;;;7.60;99.90;;;;;;5114482;28;20417;-74
2024/01/02 07:25:17;;;;;;;0.47;0.10;;;7.60;99.90;;;;;;5114666;28;21122;-75
2024/01/02 07:27:45;;;;;;;0.40;0.10;;;7.50;99.90;;;;;;5114280;28;20420;-74
2024/01/02 07:30:13;;;;;;;0.30;0.10;;;7.50;99.90;;;;;;5114100;28;20424;-74
2024/01/02 07:32:40;;;;;;;0.40;0.10;;;7.60;99.90;;;;;;5096018;28;20433;-74
2024/01/02 07:35:09;;;;;;;0.40;0.10;;;7.60;99.90;;;;;;5094392;28;20699;-74
2024/01/02 07:37:36;;;;;;;0.30;0.10;;;7.60;99.90;;;;;;5094622;28;20730;-75
2024/01/02 07:40:03;;;;;;;0.30;0.10;;;7.60;99.90;;;;;;5094682;28;20418;-74
2024/01/02 07:42:31;;;;;;;0.38;0.10;;;7.60;99.90;;;;;;5093857;28;20816;-74
2024/01/02 07:44:58;;;;;;;0.30;0.10;;;7.60;99.90;;;;;;5094660;28;20503;-75
2024/01/02 07:47:26;;;;;;;0.40;0.20;;;7.60;99.90;;;;;;5094369;28;20417;-75
2024/01/02 07:49:57;;;;;;;0.30;0.10;;;7.70;99.90;;;;;;5100528;28;20743;-75
2024/01/02 07:52:25;;;;;;;0.40;0.15;;;7.80;99.90;;;;;;5113030;28;20758;-76
2024/01/02 07:54:59;;;;;;;0.40;0.10;;;7.80;99.90;;;;;;5113295;28;20421;-77
2024/01/02 07:57:26;;;;;;;0.30;0.10;;;7.80;99.90;;;;;;5112464;28;20443;-76
2024/01/02 07:59:55;;;;;;;0.35;0.10;;;7.80;99.90;;;;;;5110085;28;20465;-75
2024/01/02 08:02:24;;;;;;;0.30;0.10;;;7.80;99.90;;;;;;5109564;28;20747;-75
2024/01/02 08:04:51;;;;;;;0.40;0.10;;;7.90;99.90;;;;;;5105162;28;20728;-76
2024/01/02 08:07:19;;;;;;;0.30;0.10;;;8.00;99.90;;;;;;5111296;28;20806;-76
2024/01/02 08:09:48;;;;;;;0.30;0.10;;;8.00;99.90;;;;;;5109504;28;20420;-76
2024/01/02 08:12:18;;;;;;;0.30;0.10;;;8.10;99.90;;;;;;5096008;28;20414;-76
2024/01/02 08:14:46;;;;;;;0.30;0.10;;;8.20;99.90;;;;;;5092688;28;20529;-75
2024/01/02 08:17:14;;;;;;;0.70;0.10;;;8.30;99.90;;;;;;5111782;28;20927;-75
2024/01/02 08:19:42;;;;;;;0.80;0.10;;;8.40;99.90;;;;;;5110206;28;20789;-75
2024/01/02 08:22:12;;;;;;;0.30;0.10;;;8.40;99.90;;;;;;5103184;28;20537;-74
2024/01/02 08:24:39;;;;;;;0.30;0.10;;;8.40;99.90;;;;;;5092440;28;20825;-73
2024/01/02 08:27:08;;;;;;;0.30;0.10;;;8.50;99.90;;;;;;5114279;28;20428;-76
2024/01/02 08:29:35;;;;;;;0.30;0.10;;;8.50;99.90;;;;;;5112032;28;20510;-75
2024/01/02 08:32:02;;;;;;;0.30;0.10;;;8.50;99.90;;;;;;5109860;28;20439;-75
2024/01/02 08:34:30;;;;;;;0.40;0.10;;;8.60;99.90;;;;;;5110126;28;20436;-75
2024/01/02 08:36:57;;;;;;;0.30;0.10;;;8.60;99.90;;;;;;5110769;28;20436;-75
2024/01/02 08:39:24;;;;;;;0.70;0.10;;;8.70;99.90;;;;;;5109691;28;20856;-74
2024/01/02 08:41:54;;;;;;;0.30;0.10;;;8.80;99.90;;;;;;5110860;28;20437;-74
2024/01/02 08:44:22;;;;;;;0.30;0.10;;;8.80;99.90;;;;;;5110695;28;20427;-75
2024/01/02 08:46:49;;;;;;;0.30;0.10;;;8.90;99.90;;;;;;5110223;28;20423;-76
2024/01/02 08:49:17;;;;;;;0.40;0.10;;;8.90;99.90;;;;;;5110444;28;21182;-75
2024/01/02 08:51:44;;;;;;;0.40;0.10;;;8.90;99.90;;;;;;5109255;28;20424;-77
2024/01/02 08:54:11;;;;;;;0.38;0.10;;;9.00;99.90;;;;;;5111589;28;20416;-75
2024/01/02 08:56:38;;;;;;;0.30;0.10;;;9.00;1.00;;;;;;5112414;28;20448;-75
2024/01/02 08:59:05;;;;;;;0.30;0.10;;;9.10;1.00;;;;;;5112400;28;20424;-76
2024/01/02 09:01:34;;;;;;;0.30;0.10;;;9.10;1.00;;;;;;5112687;28;20709;-75
2024/01/02 09:04:01;;;;;;;0.30;0.10;;;9.20;1.00;;;;;;5114313;28;20424;-75
2024/01/02 09:06:28;;;;;;;0.30;0.10;;;9.20;1.00;;;;;;5113755;28;20843;-75
2024/01/02 09:08:57;;;;;;;0.30;0.10;;;9.20;1.00;;;;;;5113537;28;20538;-76
2024/01/02 09:11:24;;;;;;;0.30;0.10;;;9.30;1.00;;;;;;5111824;28;20420;-76
2024/01/02 09:13:54;;;;;;;0.30;0.10;;;9.30;1.00;;;;;;5111929;28;20440;-75
2024/01/02 09:16:29;;;;;;;0.30;0.10;;;9.40;99.90;;;;;;5113649;28;20463;-75
2024/01/02 09:18:58;;;;;;;0.30;0.10;;;9.40;99.90;;;;;;5112057;28;20428;-75
2024/01/02 09:21:25;;;;;;;0.30;0.10;;;9.40;1.00;;;;;;5113436;28;20416;-75
2024/01/02 09:23:54;;;;;;;0.30;0.10;;;9.40;1.00;;;;;;5113885;28;20420;-76
2024/01/02 09:26:24;;;;;;;0.30;0.10;;;9.50;1.00;;;;;;5113370;28;20848;-76
2024/01/02 09:28:51;;;;;;;0.30;0.10;;;9.50;1.00;;;;;;5114312;28;20419;-75
2024/01/02 09:31:19;;;;;;;0.30;0.10;;;9.50;99.90;;;;;;5112735;28;20416;-77
2024/01/02 09:33:47;;;;;;;0.30;0.10;;;9.50;1.00;;;;;;5113118;28;20900;-77
2024/01/02 09:36:16;;;;;;;0.30;0.10;;;9.50;99.90;;;;;;5113686;28;20431;-77
2024/01/02 09:38:43;;;;;;;0.30;0.10;;;9.50;99.90;;;;;;5111448;28;20470;-77
2024/01/02 09:41:27;;;;;;;0.30;0.10;;;9.50;99.90;;;;;;5112209;28;20419;-74
2024/01/02 09:44:09;;;;;;;0.30;0.10;;;9.50;99.90;;;;;;5111767;28;20415;-74
2024/01/02 09:46:41;;;;;;;0.30;0.10;;;9.60;99.90;;;;;;5113765;28;20416;-76
2024/01/02 09:49:26;;;;;;;0.30;0.10;;;9.60;99.90;;;;;;5114069;28;20843;-77
2024/01/02 09:52:10;;;;;;;0.30;0.10;;;9.70;1.00;;;;;;5113657;28;20423;-76
2024/01/02 09:54:49;;;;;;;0.30;0.10;;;9.70;99.90;;;;;;5113519;28;20862;-77
2024/01/02 09:57:25;;;;;;;0.30;0.10;;;9.70;99.90;;;;;;5114058;28;20542;-78
2024/01/02 10:00:07;;;;;;;0.30;0.10;;;9.70;99.90;;;;;;5114632;28;20428;-76
2024/01/02 10:03:01;;;;;;;0.30;0.10;;;9.70;99.90;;;;;;5116433;28;20435;-77
2024/01/02 10:05:45;;;;;;;0.30;0.10;;;9.70;99.90;;;;;;5114243;28;20458;-76
2024/01/02 10:08:36;;;;;;;0.30;0.10;;;9.70;99.90;;;;;;5114492;28;20423;-75
2024/01/02 10:11:16;;;;;;;1.30;0.40;;;9.70;1.00;;;;;;5113009;28;20420;-76
2024/01/02 10:13:49;;;;;;;0.70;0.10;;;9.80;1.00;;;;;;5114008;28;20416;-76
2024/01/02 10:16:28;;;;;;;0.40;0.10;;;9.80;1.00;;;;;;5113724;28;20453;-76
2024/01/02 10:19:09;;;;;;;0.30;0.10;;;9.90;1.00;;;;;;5114394;28;20535;-76
2024/01/02 10:21:43;;;;;;;0.30;0.10;;;9.90;1.00;;;;;;5113657;28;20416;-76
2024/01/02 10:24:24;;;;;;;0.30;0.10;;;10.00;1.00;;;;;;5113817;28;20456;-76
2024/01/02 10:27:13;;;;;;;0.40;0.10;;;10.00;1.00;;;;;;5112972;28;20419;-76
2024/01/02 10:29:58;;;;;;;0.40;0.10;;;10.10;1.00;;;;;;5114358;28;20420;-76
2024/01/02 10:32:38;;;;;;;0.30;0.10;;;10.10;1.00;;;;;;5112938;28;20416;-75
2024/01/02 10:35:12;;;;;;;0.30;0.10;;;10.10;1.00;;;;;;5112963;28;20408;-76
2024/01/02 10:37:44;;;;;;;0.30;0.10;;;10.10;1.00;;;;;;5112884;28;20811;-75
2024/01/02 10:40:23;;;;;;;0.40;0.10;;;10.10;1.00;;;;;;5114080;28;20412;-75
2024/01/02 10:43:02;;;;;;;0.30;0.10;;;10.10;1.00;;;;;;5114151;28;20427;-75
2024/01/02 10:45:35;;;;;;;0.40;0.10;;;10.10;1.00;;;;;;5111994;28;20420;-76
2024/01/02 10:48:23;;;;;;;0.30;0.10;;;10.20;1.00;;;;;;5114094;28;20847;-76
2024/01/02 10:50:58;;;;;;;0.30;0.10;;;10.30;1.00;;;;;;5114380;28;20424;-75
2024/01/02 10:53:35;;;;;;;0.30;0.10;;;10.30;1.00;;;;;;5113432;28;20424;-75
2024/01/02 10:56:10;;;;;;;0.40;0.20;;;10.30;1.00;;;;;;5107268;28;20428;-74
2024/01/02 10:58:42;;;;;;;0.40;0.20;;;10.30;1.00;;;;;;5113707;28;20515;-76
2024/01/02 11:01:14;;;;;;;0.30;0.10;;;10.30;1.00;;;;;;5114237;28;20412;-76
2024/01/02 11:03:48;;;;;;;0.30;0.10;;;10.30;1.00;;;;;;5114051;28;20424;-77
2024/01/02 11:06:25;;;;;;;0.60;0.10;;;10.30;1.00;;;;;;5112791;28;20424;-76
2024/01/02 11:09:01;;;;;;;0.30;0.10;;;10.40;1.00;;;;;;5114072;28;20795;-76
2024/01/02 11:11:30;;;;;;;0.30;0.10;;;10.50;1.00;;;;;;5114099;28;20416;-75
2024/01/02 11:13:58;;;;;;;0.30;0.10;;;10.40;1.00;;;;;;5114832;28;20408;-75
2024/01/02 11:16:28;;;;;;;0.30;0.10;;;10.40;1.00;;;;;;5116529;28;20434;-75
2024/01/02 11:18:58;;;;;;;0.30;0.10;;;10.40;1.00;;;;;;5113634;28;20423;-71
2024/01/02 11:21:33;;;;;;;0.30;0.10;;;10.60;1.00;;;;;;5113114;28;20488;-72
2024/01/02 11:24:03;;;;;;;0.30;0.10;;;10.60;1.00;;;;;;5112139;28;20431;-72
2024/01/02 11:26:38;;;;;;;0.52;0.20;;;10.60;1.00;;;;;;5112314;28;20477;-72
2024/01/02 11:29:05;;;;;;;0.30;0.10;;;10.70;1.00;;;;;;5111850;28;20428;-72
2024/01/02 11:31:33;;;;;;;0.30;0.10;;;10.70;1.00;;;;;;5114593;28;20415;-72
2024/01/02 11:34:12;;;;;;;0.50;0.10;;;10.70;1.00;;;;;;5115442;28;20459;-72
2024/01/02 11:36:51;;;;;;;0.30;0.10;;;10.90;1.00;;;;;;5113038;28;20435;-71
2024/01/02 11:39:30;;;;;;;0.30;0.10;;;10.90;1.00;;;;;;5093341;28;20426;-72
2024/01/02 11:42:07;;;;;;;0.30;0.10;;;11.00;1.00;;;;;;5094757;28;20448;-72
2024/01/02 11:44:44;;;;;;;0.30;0.10;;;10.90;1.00;;;;;;5094584;28;20418;-71
2024/01/02 11:47:24;;;;;;;0.30;0.10;;;10.80;1.00;;;;;;5092683;28;20427;-72
2024/01/02 11:49:58;;;;;;;0.30;0.10;;;10.80;1.00;;;;;;5093986;28;20567;-71
2024/01/02 11:52:27;;;;;;;0.30;0.10;;;10.80;1.00;;;;;;5093817;28;20444;-71
2024/01/02 11:55:05;;;;;;;0.30;0.10;;;10.90;1.00;;;;;;5094455;28;20426;-72
2024/01/02 11:57:42;;;;;;;0.30;0.10;;;11.00;1.00;;;;;;5093390;28;20430;-72
2024/01/02 12:00:15;;;;;;;0.32;0.10;;;11.00;1.00;;;;;;5090554;28;20436;-72
2024/01/02 12:02:54;;;;;;;0.30;0.10;;;11.00;1.00;;;;;;5092070;28;20718;-72
2024/01/02 12:05:31;;;;;;;0.30;0.10;;;11.00;1.00;;;;;;5092996;28;20422;-72
2024/01/02 12:07:59;;;;;;;0.40;0.10;;;11.00;1.00;;;;;;5092025;28;20461;-72
2024/01/02 12:10:30;;;;;;;0.30;0.10;;;11.10;1.00;;;;;;5092407;28;20431;-72
2024/01/02 12:13:10;;;;;;;0.30;0.10;;;11.10;1.00;;;;;;5094749;28;20806;-71
2024/01/02 12:15:41;;;;;;;0.30;0.10;;;11.00;1.00;;;;;;5091253;28;20428;-72
2024/01/02 12:18:10;;;;;;;0.30;0.10;;;11.00;1.00;;;;;;5098870;28;20421;-72
2024/01/02 12:20:42;;;;;;;0.30;0.10;;;11.00;1.00;;;;;;5096232;28;20782;-72
2024/01/02 12:23:10;;;;;;;0.30;0.10;;;11.00;1.00;;;;;;5104659;28;20677;-72
2024/01/02 12:25:40;;;;;;;0.60;0.10;;;11.00;1.00;;;;;;5108400;28;21057;-72
2024/01/02 12:28:10;;;;;;;0.50;0.10;;;10.90;1.00;;;;;;5109817;28;20447;-72
2024/01/02 12:30:43;;;;;;;0.40;0.10;;;10.80;1.00;;;;;;5111756;28;20431;-71
2024/01/02 12:33:17;;;;;;;0.30;0.10;;;10.90;1.00;;;;;;5110744;28;20436;-72
2024/01/02 12:36:03;;;;;;;0.30;0.10;;;10.80;1.00;;;;;;5111445;28;20429;-72
2024/01/02 12:38:42;;;;;;;0.30;0.10;;;10.80;1.00;;;;;;5111154;28;20428;-72
2024/01/02 12:41:11;;;;;;;0.40;0.10;;;10.70;1.00;;;;;;5111705;28;20440;-71
2024/01/02 12:43:42;;;;;;;0.40;0.10;;;10.60;1.00;;;;;;5107474;28;20447;-71
2024/01/02 12:46:14;;;;;;;0.40;0.10;;;10.60;1.00;;;;;;5109283;28;20836;-71
2024/01/02 12:48:51;;;;;;;0.30;0.10;;;10.60;1.00;;;;;;5112266;28;20450;-70
2024/01/02 12:51:22;;;;;;;0.60;0.20;;;10.50;1.00;;;;;;5109617;28;20440;-72
2024/01/02 12:53:51;;;;;;;0.35;0.10;;;10.50;1.00;;;;;;5112119;28;20436;-70
2024/01/02 12:56:24;;;;;;;0.30;0.10;;;10.50;1.00;;;;;;5098366;28;20463;-71
2024/01/02 12:58:54;;;;;;;0.38;0.10;;;10.50;1.00;;;;;;5109847;28;20435;-71
2024/01/02 13:01:22;;;;;;;0.35;0.10;;;10.50;1.00;;;;;;5112047;28;20416;-71
2024/01/02 13:03:49;;;;;;;0.30;0.10;;;10.40;1.00;;;;;;5111927;28;20430;-72
2024/01/02 13:06:17;;;;;;;0.40;0.10;;;10.40;1.00;;;;;;5105194;28;20423;-72
2024/01/02 13:08:45;;;;;;;1.08;0.10;;;10.40;1.00;;;;;;5108350;28;20416;-72
2024/01/02 13:11:14;;;;;;;0.50;0.20;;;10.40;1.00;;;;;;5111312;28;20450;-72
2024/01/02 13:13:43;;;;;;;0.30;0.10;;;10.40;1.00;;;;;;5093485;28;20445;-71